sensor_id;sensor_type;location;lat;lon;timestamp;P1;durP1;ratioP1;P2;durP2;ratioP2
24407;SDS011;12542;50.924;4.516;2023-05-13T00:01:46;7.97;;;5.50;;
24407;SDS011;12542;50.924;4.516;2023-05-13T00:04:11;9.82;;;5.40;;
24407;SDS011;12542;50.924;4.516;2023-05-13T00:06:37;8.07;;;5.40;;
24407;SDS011;12542;50.924;4.516;2023-05-13T00:09:03;7.47;;;5.45;;
24407;SDS011;12542;50.924;4.516;2023-05-13T00:11:29;8.10;;;6.70;;
24407;SDS011;12542;50.924;4.516;2023-05-13T00:13:57;8.70;;;5.32;;
24407;SDS011;12542;50.924;4.516;2023-05-13T00:16:22;8.55;;;6.18;;
24407;SDS011;12542;50.924;4.516;2023-05-13T00:18:51;8.05;;;5.53;;
24407;SDS011;12542;50.924;4.516;2023-05-13T00:21:17;6.72;;;5.55;;
24407;SDS011;12542;50.924;4.516;2023-05-13T00:23:43;7.13;;;5.95;;
24407;SDS011;12542;50.924;4.516;2023-05-13T00:26:08;6.60;;;5.32;;
24407;SDS011;12542;50.924;4.516;2023-05-13T00:28:34;7.15;;;5.82;;
24407;SDS011;12542;50.924;4.516;2023-05-13T00:31:00;7.95;;;6.32;;
24407;SDS011;12542;50.924;4.516;2023-05-13T00:33:26;13.23;;;6.20;;
24407;SDS011;12542;50.924;4.516;2023-05-13T00:35:51;8.35;;;6.03;;
24407;SDS011;12542;50.924;4.516;2023-05-13T00:38:17;8.88;;;6.03;;
24407;SDS011;12542;50.924;4.516;2023-05-13T00:40:42;11.68;;;6.53;;
24407;SDS011;12542;50.924;4.516;2023-05-13T00:43:09;13.30;;;5.93;;
24407;SDS011;12542;50.924;4.516;2023-05-13T00:45:37;11.38;;;7.22;;
24407;SDS011;12542;50.924;4.516;2023-05-13T00:48:06;9.55;;;6.85;;
24407;SDS011;12542;50.924;4.516;2023-05-13T00:50:33;8.00;;;6.35;;
24407;SDS011;12542;50.924;4.516;2023-05-13T00:52:59;10.27;;;6.60;;
24407;SDS011;12542;50.924;4.516;2023-05-13T00:55:27;16.48;;;6.82;;
24407;SDS011;12542;50.924;4.516;2023-05-13T00:57:52;9.77;;;7.20;;
24407;SDS011;12542;50.924;4.516;2023-05-13T01:00:18;14.52;;;6.65;;
24407;SDS011;12542;50.924;4.516;2023-05-13T01:02:49;9.35;;;7.07;;
24407;SDS011;12542;50.924;4.516;2023-05-13T01:07:58;7.95;;;6.40;;
24407;SDS011;12542;50.924;4.516;2023-05-13T01:10:37;7.53;;;6.53;;
24407;SDS011;12542;50.924;4.516;2023-05-13T01:13:30;8.93;;;6.35;;
24407;SDS011;12542;50.924;4.516;2023-05-13T01:18:46;12.32;;;7.22;;
24407;SDS011;12542;50.924;4.516;2023-05-13T01:21:24;10.90;;;7.30;;
24407;SDS011;12542;50.924;4.516;2023-05-13T01:23:50;8.80;;;6.03;;
24407;SDS011;12542;50.924;4.516;2023-05-13T01:26:16;9.80;;;7.18;;
24407;SDS011;12542;50.924;4.516;2023-05-13T01:28:42;8.73;;;7.20;;
24407;SDS011;12542;50.924;4.516;2023-05-13T01:31:11;13.82;;;8.70;;
24407;SDS011;12542;50.924;4.516;2023-05-13T01:33:37;10.70;;;7.13;;
24407;SDS011;12542;50.924;4.516;2023-05-13T01:36:04;8.98;;;6.78;;
24407;SDS011;12542;50.924;4.516;2023-05-13T01:38:32;14.68;;;7.70;;
24407;SDS011;12542;50.924;4.516;2023-05-13T01:40:59;12.60;;;7.70;;
24407;SDS011;12542;50.924;4.516;2023-05-13T01:43:27;11.02;;;7.50;;
24407;SDS011;12542;50.924;4.516;2023-05-13T01:45:53;15.45;;;7.97;;
24407;SDS011;12542;50.924;4.516;2023-05-13T01:48:19;10.52;;;8.02;;
24407;SDS011;12542;50.924;4.516;2023-05-13T01:50:44;9.38;;;7.30;;
24407;SDS011;12542;50.924;4.516;2023-05-13T01:53:10;13.43;;;7.63;;
24407;SDS011;12542;50.924;4.516;2023-05-13T01:55:36;11.65;;;7.80;;
24407;SDS011;12542;50.924;4.516;2023-05-13T01:58:02;10.02;;;7.63;;
24407;SDS011;12542;50.924;4.516;2023-05-13T02:00:28;9.98;;;8.40;;
24407;SDS011;12542;50.924;4.516;2023-05-13T02:02:56;12.82;;;8.50;;
24407;SDS011;12542;50.924;4.516;2023-05-13T02:05:22;10.30;;;7.15;;
24407;SDS011;12542;50.924;4.516;2023-05-13T02:07:48;12.38;;;7.50;;
24407;SDS011;12542;50.924;4.516;2023-05-13T02:10:14;13.50;;;8.15;;
24407;SDS011;12542;50.924;4.516;2023-05-13T02:12:41;12.82;;;8.20;;
24407;SDS011;12542;50.924;4.516;2023-05-13T02:15:07;14.77;;;9.77;;
24407;SDS011;12542;50.924;4.516;2023-05-13T02:17:34;10.63;;;7.47;;
24407;SDS011;12542;50.924;4.516;2023-05-13T02:20:00;11.35;;;8.57;;
24407;SDS011;12542;50.924;4.516;2023-05-13T02:22:26;12.55;;;9.20;;
24407;SDS011;12542;50.924;4.516;2023-05-13T02:24:51;10.48;;;8.52;;
24407;SDS011;12542;50.924;4.516;2023-05-13T02:27:17;12.90;;;8.95;;
24407;SDS011;12542;50.924;4.516;2023-05-13T02:29:44;12.77;;;9.45;;
24407;SDS011;12542;50.924;4.516;2023-05-13T02:32:10;13.38;;;10.07;;
24407;SDS011;12542;50.924;4.516;2023-05-13T02:34:36;15.82;;;10.07;;
24407;SDS011;12542;50.924;4.516;2023-05-13T02:37:02;10.98;;;8.60;;
24407;SDS011;12542;50.924;4.516;2023-05-13T02:39:28;15.43;;;8.70;;
24407;SDS011;12542;50.924;4.516;2023-05-13T02:41:53;12.52;;;8.55;;
24407;SDS011;12542;50.924;4.516;2023-05-13T02:44:19;12.35;;;9.07;;
24407;SDS011;12542;50.924;4.516;2023-05-13T02:46:45;14.70;;;9.57;;
24407;SDS011;12542;50.924;4.516;2023-05-13T02:49:10;13.95;;;9.30;;
24407;SDS011;12542;50.924;4.516;2023-05-13T02:51:38;12.13;;;8.90;;
24407;SDS011;12542;50.924;4.516;2023-05-13T02:54:04;12.20;;;9.25;;
24407;SDS011;12542;50.924;4.516;2023-05-13T02:56:30;12.07;;;8.85;;
24407;SDS011;12542;50.924;4.516;2023-05-13T02:58:56;13.95;;;9.50;;
24407;SDS011;12542;50.924;4.516;2023-05-13T03:01:21;12.90;;;9.63;;
24407;SDS011;12542;50.924;4.516;2023-05-13T03:03:47;14.27;;;9.93;;
24407;SDS011;12542;50.924;4.516;2023-05-13T03:06:13;10.55;;;8.65;;
24407;SDS011;12542;50.924;4.516;2023-05-13T03:08:38;15.50;;;11.07;;
24407;SDS011;12542;50.924;4.516;2023-05-13T03:11:04;14.68;;;8.93;;
24407;SDS011;12542;50.924;4.516;2023-05-13T03:13:30;13.60;;;8.88;;
24407;SDS011;12542;50.924;4.516;2023-05-13T03:15:55;15.07;;;9.77;;
24407;SDS011;12542;50.924;4.516;2023-05-13T03:18:21;15.07;;;10.25;;
24407;SDS011;12542;50.924;4.516;2023-05-13T03:20:47;18.25;;;9.73;;
24407;SDS011;12542;50.924;4.516;2023-05-13T03:23:12;16.70;;;9.80;;
24407;SDS011;12542;50.924;4.516;2023-05-13T03:25:41;15.82;;;11.13;;
24407;SDS011;12542;50.924;4.516;2023-05-13T03:28:07;17.35;;;11.18;;
24407;SDS011;12542;50.924;4.516;2023-05-13T03:30:33;13.50;;;9.98;;
24407;SDS011;12542;50.924;4.516;2023-05-13T03:32:58;15.02;;;9.80;;
24407;SDS011;12542;50.924;4.516;2023-05-13T03:35:24;15.90;;;11.80;;
24407;SDS011;12542;50.924;4.516;2023-05-13T03:37:50;15.18;;;10.68;;
24407;SDS011;12542;50.924;4.516;2023-05-13T03:40:16;16.45;;;10.60;;
24407;SDS011;12542;50.924;4.516;2023-05-13T03:42:42;14.93;;;10.75;;
24407;SDS011;12542;50.924;4.516;2023-05-13T03:45:08;16.67;;;10.73;;
24407;SDS011;12542;50.924;4.516;2023-05-13T03:47:34;17.85;;;11.70;;
24407;SDS011;12542;50.924;4.516;2023-05-13T03:50:03;13.95;;;10.43;;
24407;SDS011;12542;50.924;4.516;2023-05-13T03:52:29;16.55;;;10.65;;
24407;SDS011;12542;50.924;4.516;2023-05-13T03:54:55;14.60;;;11.45;;
24407;SDS011;12542;50.924;4.516;2023-05-13T03:57:20;16.65;;;12.70;;
24407;SDS011;12542;50.924;4.516;2023-05-13T03:59:46;18.55;;;11.75;;
24407;SDS011;12542;50.924;4.516;2023-05-13T04:02:11;14.75;;;10.45;;
24407;SDS011;12542;50.924;4.516;2023-05-13T04:04:37;15.23;;;10.75;;
24407;SDS011;12542;50.924;4.516;2023-05-13T04:07:03;15.90;;;11.07;;
24407;SDS011;12542;50.924;4.516;2023-05-13T04:09:29;14.88;;;11.38;;
24407;SDS011;12542;50.924;4.516;2023-05-13T04:11:54;15.05;;;11.65;;
24407;SDS011;12542;50.924;4.516;2023-05-13T04:14:20;16.45;;;10.43;;
24407;SDS011;12542;50.924;4.516;2023-05-13T04:16:46;15.32;;;10.43;;
24407;SDS011;12542;50.924;4.516;2023-05-13T04:19:12;14.60;;;11.38;;
24407;SDS011;12542;50.924;4.516;2023-05-13T04:21:37;16.80;;;11.27;;
24407;SDS011;12542;50.924;4.516;2023-05-13T04:24:03;17.23;;;10.90;;
24407;SDS011;12542;50.924;4.516;2023-05-13T04:26:29;14.85;;;11.00;;
24407;SDS011;12542;50.924;4.516;2023-05-13T04:28:55;15.32;;;10.38;;
24407;SDS011;12542;50.924;4.516;2023-05-13T04:31:22;14.65;;;9.93;;
24407;SDS011;12542;50.924;4.516;2023-05-13T04:33:48;15.60;;;10.10;;
24407;SDS011;12542;50.924;4.516;2023-05-13T04:36:16;14.60;;;9.25;;
24407;SDS011;12542;50.924;4.516;2023-05-13T04:38:42;12.07;;;9.45;;
24407;SDS011;12542;50.924;4.516;2023-05-13T04:41:08;12.52;;;9.30;;
24407;SDS011;12542;50.924;4.516;2023-05-13T04:43:34;12.13;;;8.90;;
24407;SDS011;12542;50.924;4.516;2023-05-13T04:46:00;10.93;;;7.78;;
24407;SDS011;12542;50.924;4.516;2023-05-13T04:48:25;10.82;;;8.00;;
24407;SDS011;12542;50.924;4.516;2023-05-13T04:50:52;12.57;;;8.52;;
24407;SDS011;12542;50.924;4.516;2023-05-13T04:53:17;9.93;;;7.68;;
24407;SDS011;12542;50.924;4.516;2023-05-13T04:55:45;10.35;;;7.97;;
24407;SDS011;12542;50.924;4.516;2023-05-13T04:58:12;8.80;;;7.40;;
24407;SDS011;12542;50.924;4.516;2023-05-13T05:00:38;10.18;;;8.02;;
24407;SDS011;12542;50.924;4.516;2023-05-13T05:03:04;11.27;;;7.38;;
24407;SDS011;12542;50.924;4.516;2023-05-13T05:05:29;7.95;;;7.15;;
24407;SDS011;12542;50.924;4.516;2023-05-13T05:07:55;13.45;;;7.38;;
24407;SDS011;12542;50.924;4.516;2023-05-13T05:10:21;8.50;;;6.43;;
24407;SDS011;12542;50.924;4.516;2023-05-13T05:12:47;7.97;;;7.10;;
24407;SDS011;12542;50.924;4.516;2023-05-13T05:15:12;9.32;;;7.05;;
24407;SDS011;12542;50.924;4.516;2023-05-13T05:17:41;9.65;;;7.55;;
24407;SDS011;12542;50.924;4.516;2023-05-13T05:20:09;10.60;;;7.75;;
24407;SDS011;12542;50.924;4.516;2023-05-13T05:22:38;9.98;;;7.15;;
24407;SDS011;12542;50.924;4.516;2023-05-13T05:25:06;9.15;;;7.20;;
24407;SDS011;12542;50.924;4.516;2023-05-13T05:27:32;14.23;;;7.30;;
24407;SDS011;12542;50.924;4.516;2023-05-13T05:29:58;7.55;;;6.45;;
24407;SDS011;12542;50.924;4.516;2023-05-13T05:32:24;10.13;;;7.18;;
24407;SDS011;12542;50.924;4.516;2023-05-13T05:34:50;10.00;;;6.45;;
24407;SDS011;12542;50.924;4.516;2023-05-13T05:37:15;8.00;;;6.25;;
24407;SDS011;12542;50.924;4.516;2023-05-13T05:39:41;7.88;;;6.50;;
24407;SDS011;12542;50.924;4.516;2023-05-13T05:42:07;8.38;;;5.82;;
24407;SDS011;12542;50.924;4.516;2023-05-13T05:44:33;7.38;;;5.68;;
24407;SDS011;12542;50.924;4.516;2023-05-13T05:46:58;9.00;;;5.93;;
24407;SDS011;12542;50.924;4.516;2023-05-13T05:49:26;8.65;;;6.70;;
24407;SDS011;12542;50.924;4.516;2023-05-13T05:51:52;8.25;;;5.82;;
24407;SDS011;12542;50.924;4.516;2023-05-13T05:54:18;9.32;;;6.05;;
24407;SDS011;12542;50.924;4.516;2023-05-13T05:56:43;9.20;;;6.25;;
24407;SDS011;12542;50.924;4.516;2023-05-13T05:59:09;6.70;;;5.57;;
24407;SDS011;12542;50.924;4.516;2023-05-13T06:01:37;11.63;;;6.07;;
24407;SDS011;12542;50.924;4.516;2023-05-13T06:04:03;8.00;;;5.80;;
24407;SDS011;12542;50.924;4.516;2023-05-13T06:06:29;6.93;;;5.80;;
24407;SDS011;12542;50.924;4.516;2023-05-13T06:08:56;10.77;;;6.10;;
24407;SDS011;12542;50.924;4.516;2023-05-13T06:11:21;7.50;;;6.22;;
24407;SDS011;12542;50.924;4.516;2023-05-13T06:13:47;7.70;;;5.97;;
24407;SDS011;12542;50.924;4.516;2023-05-13T06:16:13;11.18;;;6.45;;
24407;SDS011;12542;50.924;4.516;2023-05-13T06:18:39;9.27;;;5.82;;
24407;SDS011;12542;50.924;4.516;2023-05-13T06:21:05;7.93;;;6.03;;
24407;SDS011;12542;50.924;4.516;2023-05-13T06:23:30;9.32;;;6.20;;
24407;SDS011;12542;50.924;4.516;2023-05-13T06:25:56;10.93;;;6.45;;
24407;SDS011;12542;50.924;4.516;2023-05-13T06:28:23;8.73;;;5.07;;
24407;SDS011;12542;50.924;4.516;2023-05-13T06:30:49;8.32;;;5.80;;
24407;SDS011;12542;50.924;4.516;2023-05-13T06:33:14;8.25;;;5.40;;
24407;SDS011;12542;50.924;4.516;2023-05-13T06:35:40;6.72;;;5.53;;
24407;SDS011;12542;50.924;4.516;2023-05-13T06:38:07;9.48;;;6.05;;
24407;SDS011;12542;50.924;4.516;2023-05-13T06:40:32;7.15;;;5.50;;
24407;SDS011;12542;50.924;4.516;2023-05-13T06:42:58;9.20;;;5.57;;
24407;SDS011;12542;50.924;4.516;2023-05-13T06:45:24;8.93;;;5.93;;
24407;SDS011;12542;50.924;4.516;2023-05-13T06:47:50;7.00;;;6.10;;
24407;SDS011;12542;50.924;4.516;2023-05-13T06:50:17;7.72;;;5.78;;
24407;SDS011;12542;50.924;4.516;2023-05-13T06:52:43;9.05;;;5.85;;
24407;SDS011;12542;50.924;4.516;2023-05-13T06:55:09;10.95;;;5.40;;
24407;SDS011;12542;50.924;4.516;2023-05-13T06:57:37;9.20;;;6.32;;
24407;SDS011;12542;50.924;4.516;2023-05-13T07:00:04;8.43;;;6.47;;
24407;SDS011;12542;50.924;4.516;2023-05-13T07:02:30;6.95;;;6.03;;
24407;SDS011;12542;50.924;4.516;2023-05-13T07:04:55;7.05;;;5.75;;
24407;SDS011;12542;50.924;4.516;2023-05-13T07:07:21;8.00;;;6.22;;
24407;SDS011;12542;50.924;4.516;2023-05-13T07:09:47;9.40;;;5.57;;
24407;SDS011;12542;50.924;4.516;2023-05-13T07:12:12;8.80;;;6.00;;
24407;SDS011;12542;50.924;4.516;2023-05-13T07:14:38;7.22;;;5.65;;
24407;SDS011;12542;50.924;4.516;2023-05-13T07:17:04;9.60;;;5.32;;
24407;SDS011;12542;50.924;4.516;2023-05-13T07:19:30;7.00;;;5.63;;
24407;SDS011;12542;50.924;4.516;2023-05-13T07:21:55;8.60;;;5.15;;
24407;SDS011;12542;50.924;4.516;2023-05-13T07:24:21;8.98;;;5.63;;
24407;SDS011;12542;50.924;4.516;2023-05-13T07:26:47;7.47;;;6.00;;
24407;SDS011;12542;50.924;4.516;2023-05-13T07:29:12;10.65;;;6.15;;
24407;SDS011;12542;50.924;4.516;2023-05-13T07:31:38;7.35;;;6.05;;
24407;SDS011;12542;50.924;4.516;2023-05-13T07:34:04;10.45;;;6.10;;
24407;SDS011;12542;50.924;4.516;2023-05-13T07:36:30;9.52;;;5.80;;
24407;SDS011;12542;50.924;4.516;2023-05-13T07:38:55;8.27;;;5.93;;
24407;SDS011;12542;50.924;4.516;2023-05-13T07:41:21;8.98;;;5.40;;
24407;SDS011;12542;50.924;4.516;2023-05-13T07:43:47;9.60;;;5.93;;
24407;SDS011;12542;50.924;4.516;2023-05-13T07:46:13;6.65;;;5.57;;
24407;SDS011;12542;50.924;4.516;2023-05-13T07:48:39;10.27;;;5.78;;
24407;SDS011;12542;50.924;4.516;2023-05-13T07:51:05;8.25;;;5.13;;
24407;SDS011;12542;50.924;4.516;2023-05-13T07:53:34;7.88;;;5.60;;
24407;SDS011;12542;50.924;4.516;2023-05-13T07:56:00;11.57;;;6.05;;
24407;SDS011;12542;50.924;4.516;2023-05-13T07:58:26;9.50;;;5.65;;
24407;SDS011;12542;50.924;4.516;2023-05-13T08:00:52;9.70;;;5.82;;
24407;SDS011;12542;50.924;4.516;2023-05-13T08:03:18;10.00;;;5.50;;
24407;SDS011;12542;50.924;4.516;2023-05-13T08:05:43;9.57;;;5.63;;
24407;SDS011;12542;50.924;4.516;2023-05-13T08:08:11;10.73;;;5.43;;
24407;SDS011;12542;50.924;4.516;2023-05-13T08:10:36;9.52;;;6.07;;
24407;SDS011;12542;50.924;4.516;2023-05-13T08:13:02;11.07;;;5.65;;
24407;SDS011;12542;50.924;4.516;2023-05-13T08:15:28;8.48;;;5.68;;
24407;SDS011;12542;50.924;4.516;2023-05-13T08:17:53;10.60;;;5.50;;
24407;SDS011;12542;50.924;4.516;2023-05-13T08:20:19;7.10;;;5.40;;
24407;SDS011;12542;50.924;4.516;2023-05-13T08:22:47;8.32;;;5.63;;
24407;SDS011;12542;50.924;4.516;2023-05-13T08:25:12;9.75;;;6.00;;
24407;SDS011;12542;50.924;4.516;2023-05-13T08:27:39;9.02;;;6.47;;
24407;SDS011;12542;50.924;4.516;2023-05-13T08:30:05;10.10;;;6.10;;
24407;SDS011;12542;50.924;4.516;2023-05-13T08:32:32;7.72;;;6.07;;
24407;SDS011;12542;50.924;4.516;2023-05-13T08:34:57;8.88;;;5.95;;
24407;SDS011;12542;50.924;4.516;2023-05-13T08:37:25;10.00;;;5.88;;
24407;SDS011;12542;50.924;4.516;2023-05-13T08:39:51;8.25;;;5.45;;
24407;SDS011;12542;50.924;4.516;2023-05-13T08:42:17;10.80;;;5.35;;
24407;SDS011;12542;50.924;4.516;2023-05-13T08:44:46;9.95;;;6.35;;
24407;SDS011;12542;50.924;4.516;2023-05-13T08:47:15;9.15;;;6.10;;
24407;SDS011;12542;50.924;4.516;2023-05-13T08:49:45;8.32;;;6.28;;
24407;SDS011;12542;50.924;4.516;2023-05-13T08:52:12;11.13;;;6.13;;
24407;SDS011;12542;50.924;4.516;2023-05-13T08:54:38;8.02;;;5.70;;
24407;SDS011;12542;50.924;4.516;2023-05-13T08:57:04;10.25;;;6.22;;
24407;SDS011;12542;50.924;4.516;2023-05-13T08:59:30;10.23;;;6.43;;
24407;SDS011;12542;50.924;4.516;2023-05-13T09:01:56;9.30;;;6.00;;
24407;SDS011;12542;50.924;4.516;2023-05-13T09:04:24;10.77;;;6.00;;
24407;SDS011;12542;50.924;4.516;2023-05-13T09:06:49;8.90;;;5.47;;
24407;SDS011;12542;50.924;4.516;2023-05-13T09:09:15;7.47;;;5.43;;
24407;SDS011;12542;50.924;4.516;2023-05-13T09:11:41;8.18;;;5.53;;
24407;SDS011;12542;50.924;4.516;2023-05-13T09:14:08;9.30;;;6.03;;
24407;SDS011;12542;50.924;4.516;2023-05-13T09:16:35;7.57;;;6.10;;
24407;SDS011;12542;50.924;4.516;2023-05-13T09:19:02;8.43;;;5.72;;
24407;SDS011;12542;50.924;4.516;2023-05-13T09:21:30;10.35;;;5.82;;
24407;SDS011;12542;50.924;4.516;2023-05-13T09:24:09;9.02;;;5.57;;
24407;SDS011;12542;50.924;4.516;2023-05-13T09:26:37;8.45;;;5.82;;
24407;SDS011;12542;50.924;4.516;2023-05-13T09:29:27;12.13;;;6.38;;
24407;SDS011;12542;50.924;4.516;2023-05-13T09:31:59;9.73;;;6.10;;
24407;SDS011;12542;50.924;4.516;2023-05-13T09:34:26;10.07;;;5.80;;
24407;SDS011;12542;50.924;4.516;2023-05-13T09:37:03;8.20;;;6.18;;
24407;SDS011;12542;50.924;4.516;2023-05-13T09:39:31;10.10;;;5.93;;
24407;SDS011;12542;50.924;4.516;2023-05-13T09:44:38;12.30;;;5.15;;
24407;SDS011;12542;50.924;4.516;2023-05-13T09:47:04;10.52;;;5.70;;
24407;SDS011;12542;50.924;4.516;2023-05-13T09:49:30;7.32;;;5.10;;
24407;SDS011;12542;50.924;4.516;2023-05-13T09:51:56;10.82;;;5.93;;
24407;SDS011;12542;50.924;4.516;2023-05-13T09:54:24;10.07;;;5.72;;
24407;SDS011;12542;50.924;4.516;2023-05-13T09:56:56;7.45;;;5.93;;
24407;SDS011;12542;50.924;4.516;2023-05-13T09:59:24;11.25;;;5.72;;
24407;SDS011;12542;50.924;4.516;2023-05-13T10:01:49;6.90;;;5.35;;
24407;SDS011;12542;50.924;4.516;2023-05-13T10:04:17;7.78;;;4.88;;
24407;SDS011;12542;50.924;4.516;2023-05-13T10:06:43;8.40;;;4.78;;
24407;SDS011;12542;50.924;4.516;2023-05-13T10:09:10;9.10;;;5.25;;
24407;SDS011;12542;50.924;4.516;2023-05-13T10:11:38;8.38;;;5.22;;
24407;SDS011;12542;50.924;4.516;2023-05-13T10:14:06;9.13;;;5.78;;
24407;SDS011;12542;50.924;4.516;2023-05-13T10:16:32;8.90;;;5.65;;
24407;SDS011;12542;50.924;4.516;2023-05-13T10:18:58;11.02;;;5.65;;
24407;SDS011;12542;50.924;4.516;2023-05-13T10:21:25;7.63;;;5.18;;
24407;SDS011;12542;50.924;4.516;2023-05-13T10:23:51;8.88;;;5.85;;
24407;SDS011;12542;50.924;4.516;2023-05-13T10:26:18;9.85;;;5.70;;
24407;SDS011;12542;50.924;4.516;2023-05-13T10:28:45;8.52;;;5.38;;
24407;SDS011;12542;50.924;4.516;2023-05-13T10:31:12;8.57;;;6.13;;
24407;SDS011;12542;50.924;4.516;2023-05-13T10:33:38;7.57;;;5.03;;
24407;SDS011;12542;50.924;4.516;2023-05-13T10:44:54;9.15;;;4.97;;
24407;SDS011;12542;50.924;4.516;2023-05-13T10:47:23;12.60;;;5.32;;
24407;SDS011;12542;50.924;4.516;2023-05-13T10:49:50;10.40;;;5.57;;
24407;SDS011;12542;50.924;4.516;2023-05-13T10:52:19;6.53;;;5.43;;
24407;SDS011;12542;50.924;4.516;2023-05-13T10:54:56;9.13;;;4.63;;
24407;SDS011;12542;50.924;4.516;2023-05-13T10:57:37;8.63;;;5.10;;
24407;SDS011;12542;50.924;4.516;2023-05-13T11:00:12;11.02;;;4.90;;
24407;SDS011;12542;50.924;4.516;2023-05-13T11:02:42;8.18;;;5.38;;
24407;SDS011;12542;50.924;4.516;2023-05-13T11:05:08;10.63;;;5.15;;
24407;SDS011;12542;50.924;4.516;2023-05-13T11:07:42;7.45;;;4.82;;
24407;SDS011;12542;50.924;4.516;2023-05-13T11:10:26;7.55;;;5.00;;
24407;SDS011;12542;50.924;4.516;2023-05-13T11:15:57;10.00;;;5.40;;
24407;SDS011;12542;50.924;4.516;2023-05-13T11:18:31;6.72;;;4.05;;
24407;SDS011;12542;50.924;4.516;2023-05-13T11:21:02;6.55;;;4.22;;
24407;SDS011;12542;50.924;4.516;2023-05-13T11:23:28;6.07;;;5.13;;
24407;SDS011;12542;50.924;4.516;2023-05-13T11:26:10;8.82;;;4.93;;
24407;SDS011;12542;50.924;4.516;2023-05-13T11:28:58;7.60;;;4.80;;
24407;SDS011;12542;50.924;4.516;2023-05-13T11:31:27;9.23;;;4.78;;
24407;SDS011;12542;50.924;4.516;2023-05-13T11:34:08;7.43;;;4.03;;
24407;SDS011;12542;50.924;4.516;2023-05-13T11:36:39;9.90;;;4.70;;
24407;SDS011;12542;50.924;4.516;2023-05-13T11:39:16;12.55;;;4.40;;
24407;SDS011;12542;50.924;4.516;2023-05-13T11:41:47;13.77;;;4.38;;
24407;SDS011;12542;50.924;4.516;2023-05-13T11:44:15;7.53;;;4.38;;
24407;SDS011;12542;50.924;4.516;2023-05-13T11:46:48;5.75;;;3.55;;
24407;SDS011;12542;50.924;4.516;2023-05-13T11:49:29;8.52;;;3.65;;
24407;SDS011;12542;50.924;4.516;2023-05-13T11:54:47;8.00;;;3.78;;
24407;SDS011;12542;50.924;4.516;2023-05-13T11:57:20;5.80;;;3.80;;
24407;SDS011;12542;50.924;4.516;2023-05-13T12:00:00;7.30;;;4.05;;
24407;SDS011;12542;50.924;4.516;2023-05-13T12:02:31;6.55;;;3.72;;
24407;SDS011;12542;50.924;4.516;2023-05-13T12:05:00;6.85;;;4.47;;
24407;SDS011;12542;50.924;4.516;2023-05-13T12:07:28;5.95;;;3.70;;
24407;SDS011;12542;50.924;4.516;2023-05-13T12:09:55;5.28;;;3.40;;
24407;SDS011;12542;50.924;4.516;2023-05-13T12:12:22;9.30;;;3.60;;
24407;SDS011;12542;50.924;4.516;2023-05-13T12:14:48;5.72;;;3.55;;
24407;SDS011;12542;50.924;4.516;2023-05-13T12:17:18;6.22;;;3.58;;
24407;SDS011;12542;50.924;4.516;2023-05-13T12:22:29;7.72;;;4.10;;
24407;SDS011;12542;50.924;4.516;2023-05-13T12:24:55;5.85;;;3.85;;
24407;SDS011;12542;50.924;4.516;2023-05-13T12:27:25;15.27;;;3.80;;
24407;SDS011;12542;50.924;4.516;2023-05-13T12:29:53;7.35;;;3.05;;
24407;SDS011;12542;50.924;4.516;2023-05-13T12:32:19;5.15;;;3.53;;
24407;SDS011;12542;50.924;4.516;2023-05-13T12:34:49;8.65;;;4.10;;
24407;SDS011;12542;50.924;4.516;2023-05-13T12:37:15;8.05;;;4.07;;
24407;SDS011;12542;50.924;4.516;2023-05-13T12:39:42;4.63;;;3.17;;
24407;SDS011;12542;50.924;4.516;2023-05-13T12:42:14;7.30;;;3.40;;
24407;SDS011;12542;50.924;4.516;2023-05-13T12:44:43;4.55;;;3.10;;
24407;SDS011;12542;50.924;4.516;2023-05-13T12:47:09;4.25;;;3.25;;
24407;SDS011;12542;50.924;4.516;2023-05-13T12:52:22;4.35;;;2.85;;
24407;SDS011;12542;50.924;4.516;2023-05-13T12:54:48;8.27;;;2.88;;
24407;SDS011;12542;50.924;4.516;2023-05-13T12:57:17;6.75;;;2.97;;
24407;SDS011;12542;50.924;4.516;2023-05-13T12:59:44;5.53;;;3.20;;
24407;SDS011;12542;50.924;4.516;2023-05-13T13:02:13;6.78;;;3.63;;
24407;SDS011;12542;50.924;4.516;2023-05-13T13:04:38;5.82;;;2.88;;
24407;SDS011;12542;50.924;4.516;2023-05-13T13:07:06;6.72;;;3.20;;
24407;SDS011;12542;50.924;4.516;2023-05-13T13:09:36;9.63;;;3.28;;
24407;SDS011;12542;50.924;4.516;2023-05-13T13:12:02;4.65;;;3.08;;
24407;SDS011;12542;50.924;4.516;2023-05-13T13:14:28;5.65;;;3.08;;
24407;SDS011;12542;50.924;4.516;2023-05-13T13:16:53;4.82;;;2.97;;
24407;SDS011;12542;50.924;4.516;2023-05-13T13:19:19;4.45;;;3.08;;
24407;SDS011;12542;50.924;4.516;2023-05-13T13:21:45;4.32;;;3.13;;
24407;SDS011;12542;50.924;4.516;2023-05-13T13:24:10;7.25;;;3.05;;
24407;SDS011;12542;50.924;4.516;2023-05-13T13:26:36;6.55;;;2.80;;
24407;SDS011;12542;50.924;4.516;2023-05-13T13:29:02;4.60;;;2.65;;
24407;SDS011;12542;50.924;4.516;2023-05-13T13:31:27;7.13;;;2.90;;
24407;SDS011;12542;50.924;4.516;2023-05-13T13:33:53;4.85;;;2.85;;
24407;SDS011;12542;50.924;4.516;2023-05-13T13:36:28;6.07;;;2.45;;
24407;SDS011;12542;50.924;4.516;2023-05-13T13:38:53;3.30;;;2.58;;
24407;SDS011;12542;50.924;4.516;2023-05-13T13:41:19;4.07;;;2.50;;
24407;SDS011;12542;50.924;4.516;2023-05-13T13:43:49;7.13;;;2.22;;
24407;SDS011;12542;50.924;4.516;2023-05-13T13:46:18;5.63;;;3.17;;
24407;SDS011;12542;50.924;4.516;2023-05-13T13:48:46;5.72;;;2.88;;
24407;SDS011;12542;50.924;4.516;2023-05-13T13:51:11;5.38;;;2.80;;
24407;SDS011;12542;50.924;4.516;2023-05-13T13:53:40;4.07;;;2.63;;
24407;SDS011;12542;50.924;4.516;2023-05-13T13:56:05;4.18;;;2.70;;
24407;SDS011;12542;50.924;4.516;2023-05-13T13:58:31;5.45;;;2.70;;
24407;SDS011;12542;50.924;4.516;2023-05-13T14:00:57;4.82;;;2.40;;
24407;SDS011;12542;50.924;4.516;2023-05-13T14:03:22;4.25;;;2.58;;
24407;SDS011;12542;50.924;4.516;2023-05-13T14:05:48;6.63;;;2.70;;
24407;SDS011;12542;50.924;4.516;2023-05-13T14:08:16;9.18;;;2.58;;
24407;SDS011;12542;50.924;4.516;2023-05-13T14:10:41;6.03;;;2.47;;
24407;SDS011;12542;50.924;4.516;2023-05-13T14:13:07;8.23;;;3.10;;
24407;SDS011;12542;50.924;4.516;2023-05-13T14:15:33;7.10;;;2.97;;
24407;SDS011;12542;50.924;4.516;2023-05-13T14:18:02;5.43;;;2.50;;
24407;SDS011;12542;50.924;4.516;2023-05-13T14:20:30;8.00;;;2.88;;
24407;SDS011;12542;50.924;4.516;2023-05-13T14:22:57;16.40;;;3.65;;
24407;SDS011;12542;50.924;4.516;2023-05-13T14:25:23;7.28;;;3.33;;
24407;SDS011;12542;50.924;4.516;2023-05-13T14:27:49;4.20;;;2.33;;
24407;SDS011;12542;50.924;4.516;2023-05-13T14:30:15;4.82;;;2.83;;
24407;SDS011;12542;50.924;4.516;2023-05-13T14:32:41;8.68;;;2.65;;
24407;SDS011;12542;50.924;4.516;2023-05-13T14:35:10;5.45;;;2.65;;
24407;SDS011;12542;50.924;4.516;2023-05-13T14:37:36;3.75;;;2.60;;
24407;SDS011;12542;50.924;4.516;2023-05-13T14:40:04;5.53;;;2.90;;
24407;SDS011;12542;50.924;4.516;2023-05-13T14:42:31;3.53;;;2.50;;
24407;SDS011;12542;50.924;4.516;2023-05-13T14:44:56;5.65;;;2.63;;
24407;SDS011;12542;50.924;4.516;2023-05-13T14:47:22;3.67;;;2.70;;
24407;SDS011;12542;50.924;4.516;2023-05-13T14:49:48;3.03;;;2.20;;
24407;SDS011;12542;50.924;4.516;2023-05-13T14:52:13;4.30;;;2.53;;
24407;SDS011;12542;50.924;4.516;2023-05-13T14:54:39;4.90;;;2.78;;
24407;SDS011;12542;50.924;4.516;2023-05-13T14:57:05;7.28;;;2.80;;
24407;SDS011;12542;50.924;4.516;2023-05-13T14:59:31;4.30;;;2.33;;
24407;SDS011;12542;50.924;4.516;2023-05-13T15:01:59;7.25;;;2.55;;
24407;SDS011;12542;50.924;4.516;2023-05-13T15:04:26;5.03;;;3.00;;
24407;SDS011;12542;50.924;4.516;2023-05-13T15:06:53;7.38;;;3.00;;
24407;SDS011;12542;50.924;4.516;2023-05-13T15:09:22;11.00;;;3.50;;